createdAt,value
2022-08-18T00:02:17.864Z,19.70
2022-08-18T00:04:48.889Z,19.65
2022-08-18T00:07:19.527Z,19.48
2022-08-18T00:09:47.774Z,19.48
2022-08-18T00:12:17.954Z,19.43
2022-08-18T00:14:45.533Z,19.53
2022-08-18T00:17:15.115Z,19.41
2022-08-18T00:19:46.803Z,19.46
2022-08-18T00:22:21.169Z,19.46
2022-08-18T00:24:50.412Z,19.40
2022-08-18T00:27:21.674Z,19.28
2022-08-18T00:29:50.845Z,19.20
2022-08-18T00:32:21.626Z,19.25
2022-08-18T00:34:49.163Z,19.21
2022-08-18T00:37:17.314Z,19.13
2022-08-18T00:39:46.596Z,19.29
2022-08-18T00:42:28.172Z,19.23
2022-08-18T00:45:00.815Z,19.28
2022-08-18T00:47:41.932Z,19.37
2022-08-18T00:50:20.326Z,19.30
2022-08-18T00:52:55.415Z,19.50
2022-08-18T00:55:23.330Z,19.43
2022-08-18T00:57:52.705Z,19.25
2022-08-18T01:00:21.143Z,19.25
2022-08-18T01:02:52.822Z,19.16
2022-08-18T01:05:25.011Z,19.19
2022-08-18T01:07:52.794Z,19.23
2022-08-18T01:10:22.493Z,19.20
2022-08-18T01:12:51.939Z,19.18
2022-08-18T01:15:27.778Z,18.91
2022-08-18T01:18:16.262Z,18.94
2022-08-18T01:21:06.255Z,19.04
2022-08-18T01:23:36.923Z,19.17
2022-08-18T01:26:04.206Z,19.31
2022-08-18T01:28:33.713Z,19.31
2022-08-18T01:31:02.734Z,19.36
2022-08-18T01:33:32.892Z,19.37
2022-08-18T01:36:03.518Z,19.38
2022-08-18T01:38:32.028Z,19.35
2022-08-18T01:41:28.984Z,19.21
2022-08-18T01:43:49.701Z,19.08
2022-08-18T01:46:19.886Z,19.11
2022-08-18T01:48:48.252Z,19.10
2022-08-18T01:51:17.835Z,19.11
2022-08-18T01:53:46.142Z,19.06
2022-08-18T01:56:17.569Z,18.96
2022-08-18T01:58:47.639Z,18.74
2022-08-18T02:01:15.317Z,18.65
2022-08-18T02:04:02.550Z,18.54
2022-08-18T02:06:46.416Z,18.53
2022-08-18T02:09:15.560Z,18.57
2022-08-18T02:11:56.145Z,18.65
2022-08-18T02:14:25.042Z,18.61
2022-08-18T02:17:01.690Z,18.68
2022-08-18T02:19:34.165Z,18.82
2022-08-18T02:22:02.720Z,18.85
2022-08-18T02:24:30.414Z,18.86
2022-08-18T02:26:59.338Z,18.81
2022-08-18T02:29:26.864Z,18.83
2022-08-18T02:31:54.477Z,18.88
2022-08-18T02:34:25.441Z,18.30
2022-08-18T02:36:53.188Z,18.38
2022-08-18T02:39:21.369Z,18.61
2022-08-18T02:41:48.903Z,18.72
2022-08-18T02:44:17.730Z,18.70
2022-08-18T02:46:45.240Z,18.86
2022-08-18T02:49:13.155Z,18.76
2022-08-18T02:51:40.717Z,18.81
2022-08-18T02:54:11.019Z,18.69
2022-08-18T02:56:40.960Z,18.64
2022-08-18T02:59:11.756Z,18.68
2022-08-18T03:01:43.161Z,18.78
2022-08-18T03:04:14.168Z,18.75
2022-08-18T03:06:42.274Z,18.66
2022-08-18T03:09:12.767Z,18.59
2022-08-18T03:11:40.750Z,18.56
2022-08-18T03:14:11.952Z,18.82
2022-08-18T03:16:52.872Z,18.79
2022-08-18T03:19:23.690Z,18.89
2022-08-18T03:21:51.375Z,18.84
2022-08-18T03:24:22.898Z,18.93
2022-08-18T03:26:52.651Z,19.02
2022-08-18T03:29:20.765Z,19.15
2022-08-18T03:31:50.178Z,19.25
2022-08-18T03:34:20.677Z,19.24
2022-08-18T03:36:49.862Z,19.28
2022-08-18T03:39:17.989Z,19.32
2022-08-18T03:41:58.141Z,19.37
2022-08-18T03:44:29.109Z,19.66
2022-08-18T03:46:58.303Z,19.41
2022-08-18T03:49:26.728Z,19.37
2022-08-18T03:51:54.467Z,19.43
2022-08-18T03:54:22.067Z,19.52
2022-08-18T03:56:50.285Z,19.53
2022-08-18T03:59:20.421Z,19.36
2022-08-18T04:01:49.438Z,19.59
2022-08-18T04:04:20.225Z,19.61
2022-08-18T04:06:51.134Z,19.57
2022-08-18T04:09:20.571Z,19.55
2022-08-18T04:11:49.023Z,19.57
2022-08-18T04:14:19.699Z,19.23
2022-08-18T04:16:48.929Z,19.30
2022-08-18T04:19:26.771Z,19.15
2022-08-18T04:21:56.461Z,19.10
2022-08-18T04:24:25.742Z,19.07
2022-08-18T04:26:53.268Z,19.09
2022-08-18T04:29:21.945Z,19.22
2022-08-18T04:31:50.134Z,19.24
2022-08-18T04:34:20.356Z,19.30
2022-08-18T04:36:47.877Z,19.30
2022-08-18T04:39:15.740Z,19.36
2022-08-18T04:41:44.656Z,19.36
2022-08-18T04:44:13.854Z,19.46
2022-08-18T04:46:42.585Z,19.36
2022-08-18T04:49:11.697Z,19.59
2022-08-18T04:52:26.949Z,19.65
2022-08-18T04:54:30.455Z,19.71
2022-08-18T04:56:58.136Z,19.52
2022-08-18T04:59:25.897Z,19.52
2022-08-18T05:01:53.431Z,19.51
2022-08-18T05:04:21.196Z,19.59
2022-08-18T05:06:51.225Z,19.71
2022-08-18T05:09:22.991Z,19.84
2022-08-18T05:11:51.562Z,19.60
2022-08-18T05:14:20.054Z,19.47
2022-08-18T05:16:49.577Z,19.48
2022-08-18T05:19:22.034Z,19.49
2022-08-18T05:21:53.321Z,19.58
2022-08-18T05:24:29.500Z,19.56
2022-08-18T05:27:00.090Z,19.45
2022-08-18T05:29:27.758Z,19.51
2022-08-18T05:32:03.530Z,19.50
2022-08-18T05:34:31.105Z,19.37
2022-08-18T05:37:06.237Z,19.38
2022-08-18T05:39:39.780Z,19.48
2022-08-18T05:42:10.010Z,19.61
2022-08-18T05:44:41.271Z,19.48
2022-08-18T05:47:12.837Z,19.43
2022-08-18T05:49:41.039Z,19.43
2022-08-18T05:52:14.943Z,19.57
2022-08-18T05:55:04.414Z,19.70
2022-08-18T05:57:38.777Z,19.73
2022-08-18T06:00:10.253Z,19.70
2022-08-18T06:02:45.919Z,19.70
2022-08-18T06:05:16.681Z,19.83
2022-08-18T06:07:51.219Z,19.86
2022-08-18T06:10:19.046Z,19.94
2022-08-18T06:12:49.146Z,19.97
2022-08-18T06:15:25.125Z,20.13
2022-08-18T06:18:11.910Z,20.23
2022-08-18T06:20:54.504Z,20.22
2022-08-18T06:23:29.822Z,20.20
2022-08-18T06:26:04.834Z,20.52
2022-08-18T06:28:45.109Z,20.54
2022-08-18T06:31:18.229Z,20.66
2022-08-18T06:33:51.275Z,20.83
2022-08-18T06:36:24.012Z,20.84
2022-08-18T06:39:04.435Z,21.07
2022-08-18T06:41:42.914Z,21.22
2022-08-18T06:44:15.314Z,21.43
2022-08-18T06:46:46.894Z,21.74
2022-08-18T06:49:22.917Z,22.17
2022-08-18T06:51:50.413Z,22.25
2022-08-18T06:54:30.577Z,22.31
2022-08-18T06:56:59.250Z,22.74
2022-08-18T06:59:28.731Z,23.24
2022-08-18T07:02:01.530Z,23.84
2022-08-18T07:04:45.701Z,24.51
2022-08-18T07:07:21.427Z,25.03
2022-08-18T07:09:50.543Z,25.44
2022-08-18T07:12:26.702Z,25.69
2022-08-18T07:15:00.227Z,25.69
2022-08-18T07:17:43.657Z,26.00
2022-08-18T07:20:20.939Z,26.21
2022-08-18T07:22:57.294Z,26.41
2022-08-18T07:25:31.986Z,26.22
2022-08-18T07:28:01.838Z,26.49
2022-08-18T07:30:33.635Z,26.31
2022-08-18T07:33:06.193Z,26.39
2022-08-18T07:35:37.483Z,26.17
2022-08-18T07:38:40.974Z,25.02
2022-08-18T07:41:01.267Z,24.90
2022-08-18T07:43:37.367Z,24.52
2022-08-18T07:46:11.804Z,24.12
2022-08-18T07:48:39.779Z,24.14
2022-08-18T07:51:16.509Z,24.00
2022-08-18T07:53:56.102Z,23.80
2022-08-18T07:56:34.226Z,24.11
2022-08-18T07:59:05.978Z,24.33
2022-08-18T08:04:26.150Z,25.50
2022-08-18T08:07:23.059Z,25.61
2022-08-18T08:09:51.737Z,25.91
2022-08-18T08:12:26.286Z,25.93
2022-08-18T08:15:01.846Z,25.86
2022-08-18T08:17:33.558Z,26.45
2022-08-18T08:20:17.694Z,26.10
2022-08-18T08:22:57.077Z,26.45
2022-08-18T08:25:45.925Z,26.32
2022-08-18T08:28:25.502Z,26.39
2022-08-18T08:31:13.573Z,26.28
2022-08-18T08:33:50.361Z,26.26
2022-08-18T08:36:22.499Z,26.12
2022-08-18T08:38:53.574Z,25.57
2022-08-18T08:41:28.087Z,25.68
2022-08-18T08:44:03.772Z,25.35
2022-08-18T08:46:35.946Z,24.93
2022-08-18T08:49:08.658Z,24.94
2022-08-18T08:51:40.994Z,24.87
2022-08-18T08:54:13.678Z,24.97
2022-08-18T08:56:45.268Z,25.02
2022-08-18T08:59:16.635Z,24.85
2022-08-18T09:01:49.324Z,24.54
2022-08-18T09:04:24.638Z,24.15
2022-08-18T09:07:01.606Z,24.02
2022-08-18T09:09:45.528Z,23.89
2022-08-18T09:12:29.016Z,24.00
2022-08-18T09:15:08.513Z,24.31
2022-08-18T09:17:59.171Z,24.39
2022-08-18T09:20:49.703Z,24.75
2022-08-18T09:23:19.973Z,24.97
2022-08-18T09:25:50.451Z,25.39
2022-08-18T09:28:19.945Z,25.97
2022-08-18T09:30:55.152Z,26.73
2022-08-18T09:33:31.913Z,27.81
2022-08-18T09:36:20.315Z,27.89
2022-08-18T09:39:08.663Z,27.51
2022-08-18T09:41:45.624Z,28.09
2022-08-18T09:44:55.589Z,28.30
2022-08-18T09:48:00.482Z,28.13
2022-08-18T09:51:01.482Z,28.45
2022-08-18T09:53:39.780Z,27.60
2022-08-18T09:56:07.354Z,26.67
2022-08-18T09:59:09.803Z,26.22
2022-08-18T10:01:41.333Z,25.73
2022-08-18T10:04:29.653Z,25.59
2022-08-18T10:09:58.646Z,25.70
2022-08-18T10:12:37.386Z,26.18
2022-08-18T10:15:33.556Z,26.27
2022-08-18T10:18:27.417Z,26.56
2022-08-18T10:21:01.767Z,26.82
2022-08-18T10:23:58.189Z,26.37
2022-08-18T10:27:09.158Z,26.69
2022-08-18T10:29:56.445Z,25.99
2022-08-18T10:32:52.279Z,25.95
2022-08-18T10:35:57.634Z,25.18
2022-08-18T10:38:49.681Z,25.03
2022-08-18T10:41:22.730Z,25.50
2022-08-18T10:43:55.593Z,25.60
2022-08-18T10:46:31.865Z,25.23
2022-08-18T10:49:06.852Z,24.95
2022-08-18T10:51:59.165Z,25.12
2022-08-18T10:54:51.073Z,25.34
2022-08-18T10:57:47.809Z,24.90
2022-08-18T11:00:19.690Z,25.46
2022-08-18T11:03:29.943Z,25.51
2022-08-18T11:05:51.299Z,25.70
2022-08-18T11:08:21.905Z,26.16
2022-08-18T11:11:24.907Z,26.73
2022-08-18T11:13:47.978Z,26.95
2022-08-18T11:16:25.664Z,27.18
2022-08-18T11:18:58.902Z,27.67
2022-08-18T11:21:33.008Z,27.86
2022-08-18T11:24:15.194Z,27.84
2022-08-18T11:26:53.172Z,28.40
2022-08-18T11:29:26.756Z,28.02
2022-08-18T11:32:02.136Z,27.63
2022-08-18T11:34:38.654Z,27.87
2022-08-18T11:37:25.480Z,27.68
2022-08-18T11:39:54.545Z,27.98
2022-08-18T11:42:29.157Z,27.57
2022-08-18T11:45:04.670Z,27.73
2022-08-18T11:47:32.259Z,27.79
2022-08-18T11:50:09.894Z,28.01
2022-08-18T11:52:49.329Z,28.35
2022-08-18T11:55:29.854Z,28.71
2022-08-18T11:58:00.263Z,28.90
2022-08-18T12:00:57.253Z,29.27
2022-08-18T12:03:32.805Z,28.23
2022-08-18T12:06:20.308Z,28.74
2022-08-18T12:08:58.162Z,28.61
2022-08-18T12:11:29.073Z,28.26
2022-08-18T12:16:54.388Z,27.92
2022-08-18T12:19:24.373Z,28.04
2022-08-18T12:21:55.532Z,27.65
2022-08-18T12:27:21.396Z,27.37
2022-08-18T12:29:50.222Z,26.74
2022-08-18T12:32:52.578Z,26.45
2022-08-18T12:35:09.408Z,26.36
2022-08-18T12:40:29.500Z,26.50
2022-08-18T12:42:57.812Z,26.88
2022-08-18T12:45:27.271Z,27.50
2022-08-18T12:47:55.300Z,27.36
2022-08-18T12:53:12.237Z,27.46
2022-08-18T12:58:30.205Z,27.16
2022-08-18T13:00:58.455Z,27.50
2022-08-18T13:06:13.884Z,28.06
2022-08-18T13:08:49.880Z,28.25
2022-08-18T13:11:23.833Z,28.19
2022-08-18T13:13:56.094Z,28.41
2022-08-18T13:16:38.873Z,28.53
2022-08-18T13:19:13.250Z,28.83
2022-08-18T13:21:43.043Z,28.93
2022-08-18T13:24:12.921Z,28.84
2022-08-18T13:26:42.794Z,28.79
2022-08-18T13:29:15.328Z,28.85
2022-08-18T13:31:57.608Z,28.48
2022-08-18T13:34:27.449Z,28.19
2022-08-18T13:36:57.427Z,27.93
2022-08-18T13:39:33.722Z,27.63
2022-08-18T13:42:26.839Z,27.60
2022-08-18T13:44:52.846Z,27.78
2022-08-18T13:47:21.126Z,28.67
2022-08-18T13:49:58.110Z,28.70
2022-08-18T13:52:34.949Z,28.45
2022-08-18T13:55:11.875Z,28.37
2022-08-18T13:57:48.115Z,28.00
2022-08-18T14:00:27.714Z,28.09
2022-08-18T14:03:03.094Z,28.29
2022-08-18T14:05:36.804Z,29.02
2022-08-18T14:08:19.915Z,29.69
2022-08-18T14:10:50.617Z,29.38
2022-08-18T14:13:20.737Z,29.48
2022-08-18T14:15:53.818Z,29.74
2022-08-18T14:18:22.671Z,29.90
2022-08-18T14:21:14.789Z,29.95
2022-08-18T14:24:10.244Z,29.62
2022-08-18T14:26:50.399Z,29.05
2022-08-18T14:29:46.153Z,27.88
2022-08-18T14:32:07.083Z,27.75
2022-08-18T14:34:34.884Z,27.28
2022-08-18T14:37:03.682Z,27.26
2022-08-18T14:39:31.253Z,26.81
2022-08-18T14:42:03.102Z,26.49
2022-08-18T14:44:32.539Z,26.67
2022-08-18T14:47:00.550Z,26.77
2022-08-18T14:49:31.075Z,27.30
2022-08-18T14:51:59.949Z,28.02
2022-08-18T14:54:30.107Z,28.57
2022-08-18T14:57:01.612Z,28.75
2022-08-18T14:59:34.528Z,27.86
2022-08-18T15:02:05.952Z,28.70
2022-08-18T15:04:53.250Z,29.03
2022-08-18T15:07:24.387Z,28.77
2022-08-18T15:09:51.887Z,28.05
2022-08-18T15:12:41.098Z,28.13
2022-08-18T15:15:12.946Z,28.56
2022-08-18T15:17:45.420Z,29.00
2022-08-18T15:20:18.105Z,28.87
2022-08-18T15:23:04.782Z,28.83
2022-08-18T15:25:45.365Z,29.04
2022-08-18T15:28:17.544Z,29.06
2022-08-18T15:30:51.073Z,28.25
2022-08-18T15:33:23.673Z,27.91
2022-08-18T15:35:52.359Z,27.82
2022-08-18T15:38:20.938Z,27.95
2022-08-18T15:40:57.145Z,28.46
2022-08-18T15:43:31.237Z,28.51
2022-08-18T15:45:59.716Z,28.73
2022-08-18T15:48:29.093Z,28.18
2022-08-18T15:50:56.947Z,28.06
2022-08-18T15:53:29.730Z,28.30
2022-08-18T15:55:58.266Z,28.26
2022-08-18T15:58:32.996Z,28.21
2022-08-18T16:01:00.556Z,28.49
2022-08-18T16:03:29.013Z,28.57
2022-08-18T16:05:56.512Z,28.58
2022-08-18T16:08:26.270Z,28.41
2022-08-18T16:10:54.692Z,28.33
2022-08-18T16:13:22.798Z,28.09
2022-08-18T16:15:52.283Z,28.17
2022-08-18T16:18:21.826Z,28.23
2022-08-18T16:20:52.771Z,28.25
2022-08-18T16:23:24.423Z,28.60
2022-08-18T16:25:51.973Z,28.82
2022-08-18T16:28:19.555Z,29.06
2022-08-18T16:30:47.726Z,28.39
2022-08-18T16:33:16.865Z,28.69
2022-08-18T16:35:45.263Z,28.79
2022-08-18T16:38:13.738Z,28.69
2022-08-18T16:40:41.298Z,28.35
2022-08-18T16:43:08.892Z,28.31
2022-08-18T16:45:37.965Z,28.23
2022-08-18T16:48:07.987Z,28.01
2022-08-18T16:50:37.608Z,28.03
2022-08-18T16:53:05.637Z,27.87
2022-08-18T16:55:34.011Z,27.80
2022-08-18T16:58:18.782Z,27.74
2022-08-18T17:01:04.057Z,27.66
2022-08-18T17:03:49.094Z,27.47
2022-08-18T17:06:19.486Z,27.31
2022-08-18T17:08:47.277Z,27.19
2022-08-18T17:11:17.411Z,26.97
2022-08-18T17:13:45.706Z,27.11
2022-08-18T17:16:13.731Z,27.03
2022-08-18T17:18:41.798Z,27.02
2022-08-18T17:21:13.089Z,27.01
2022-08-18T17:23:42.387Z,26.59
2022-08-18T17:26:16.468Z,26.28
2022-08-18T17:28:50.472Z,25.79
2022-08-18T17:31:21.044Z,25.54
2022-08-18T17:33:48.904Z,25.52
2022-08-18T17:36:22.204Z,25.67
2022-08-18T17:38:54.024Z,25.44
2022-08-18T17:41:23.542Z,25.45
2022-08-18T17:43:52.241Z,25.40
2022-08-18T17:46:25.870Z,25.33
2022-08-18T17:48:56.401Z,25.49
2022-08-18T17:51:34.938Z,25.75
2022-08-18T17:54:10.113Z,25.92
2022-08-18T17:56:40.006Z,25.78
2022-08-18T17:59:50.854Z,25.80
2022-08-18T18:02:28.800Z,25.77
2022-08-18T18:04:58.734Z,25.66
2022-08-18T18:07:28.189Z,25.60
2022-08-18T18:10:08.575Z,25.48
2022-08-18T18:12:38.158Z,25.38
2022-08-18T18:15:08.385Z,25.55
2022-08-18T18:17:38.277Z,25.30
2022-08-18T18:20:16.522Z,25.27
2022-08-18T18:22:45.607Z,25.38
2022-08-18T18:25:34.639Z,25.31
2022-08-18T18:28:02.438Z,24.96
2022-08-18T18:30:31.817Z,24.74
2022-08-18T18:33:02.562Z,24.75
2022-08-18T18:35:34.124Z,24.67
2022-08-18T18:38:03.406Z,24.68
2022-08-18T18:40:35.671Z,24.52
2022-08-18T18:43:24.786Z,24.46
2022-08-18T18:46:10.212Z,24.22
2022-08-18T18:48:52.038Z,24.24
2022-08-18T18:51:33.778Z,24.25
2022-08-18T18:54:12.715Z,24.26
2022-08-18T18:56:45.560Z,24.07
2022-08-18T18:59:20.373Z,24.11
2022-08-18T19:01:54.145Z,24.11
2022-08-18T19:04:27.074Z,24.08
2022-08-18T19:06:59.614Z,24.00
2022-08-18T19:09:32.507Z,24.02
2022-08-18T19:12:09.642Z,23.97
2022-08-18T19:14:40.431Z,23.94
2022-08-18T19:17:13.334Z,23.86
2022-08-18T19:19:44.534Z,23.64
2022-08-18T19:22:19.042Z,23.62
2022-08-18T19:24:52.391Z,23.45
2022-08-18T19:27:29.456Z,23.28
2022-08-18T19:30:00.551Z,23.05
2022-08-18T19:32:36.153Z,23.04
2022-08-18T19:35:12.148Z,22.85
2022-08-18T19:38:01.999Z,22.74
2022-08-18T19:40:38.186Z,22.69
2022-08-18T19:43:12.505Z,22.58
2022-08-18T19:45:47.632Z,22.59
2022-08-18T19:48:20.294Z,22.51
2022-08-18T19:50:52.445Z,22.47
2022-08-18T19:53:40.112Z,22.31
2022-08-18T19:56:21.473Z,22.18
2022-08-18T19:59:25.025Z,22.12
2022-08-18T20:02:02.802Z,22.10
2022-08-18T20:04:43.419Z,21.98
2022-08-18T20:07:47.034Z,21.90
2022-08-18T20:10:32.660Z,21.85
2022-08-18T20:13:13.661Z,21.80
2022-08-18T20:16:01.312Z,21.78
2022-08-18T20:18:35.412Z,21.76
2022-08-18T20:21:39.816Z,21.77
2022-08-18T20:24:30.103Z,21.60
2022-08-18T20:27:15.021Z,21.64
2022-08-18T20:29:48.622Z,21.63
2022-08-18T20:32:21.345Z,21.75
2022-08-18T20:34:51.973Z,21.81
2022-08-18T20:37:25.410Z,21.84
2022-08-18T20:39:56.286Z,21.91
2022-08-18T20:42:43.526Z,21.95
2022-08-18T20:45:24.946Z,21.87
2022-08-18T20:48:16.851Z,21.98
2022-08-18T20:50:57.451Z,22.00
2022-08-18T20:53:56.969Z,22.01
2022-08-18T20:56:32.740Z,21.88
2022-08-18T20:59:18.225Z,21.91
2022-08-18T21:01:57.602Z,21.81
2022-08-18T21:04:42.927Z,21.81
2022-08-18T21:07:36.987Z,21.68
2022-08-18T21:10:12.976Z,21.68
2022-08-18T21:12:51.618Z,21.54
2022-08-18T21:15:24.550Z,21.49
2022-08-18T21:18:03.737Z,21.27
2022-08-18T21:20:32.353Z,21.26
2022-08-18T21:23:08.213Z,21.07
2022-08-18T21:25:36.075Z,20.91
2022-08-18T21:28:06.021Z,21.01
2022-08-18T21:30:34.306Z,21.04
2022-08-18T21:33:01.957Z,21.14
2022-08-18T21:35:32.914Z,21.20
2022-08-18T21:38:02.751Z,21.20
2022-08-18T21:40:41.021Z,21.11
2022-08-18T21:43:09.494Z,21.07
2022-08-18T21:45:47.256Z,21.06
2022-08-18T21:48:15.306Z,20.82
2022-08-18T21:50:50.998Z,20.93
2022-08-18T21:53:21.929Z,20.84
2022-08-18T21:55:52.278Z,20.89
2022-08-18T21:58:32.679Z,20.92
2022-08-18T22:01:20.960Z,20.71
2022-08-18T22:03:54.436Z,20.79
2022-08-18T22:06:28.699Z,20.84
2022-08-18T22:09:20.364Z,20.62
2022-08-18T22:12:07.130Z,20.54
2022-08-18T22:14:54.703Z,20.55
2022-08-18T22:17:28.906Z,20.68
2022-08-18T22:19:57.583Z,20.54
2022-08-18T22:22:42.577Z,20.53
2022-08-18T22:25:12.906Z,20.64
2022-08-18T22:27:41.730Z,20.65
2022-08-18T22:30:09.849Z,20.64
2022-08-18T22:32:38.888Z,20.60
2022-08-18T22:35:09.319Z,20.59
2022-08-18T22:37:40.936Z,20.53
2022-08-18T22:40:10.982Z,20.39
2022-08-18T22:42:39.100Z,20.41
2022-08-18T22:45:13.383Z,20.36
2022-08-18T22:47:43.784Z,20.26
2022-08-18T22:50:13.590Z,20.11
2022-08-18T22:52:44.525Z,20.07
2022-08-18T22:55:13.741Z,19.99
2022-08-18T22:57:42.998Z,19.89
2022-08-18T23:00:15.412Z,19.84
2022-08-18T23:02:43.222Z,19.82
2022-08-18T23:05:11.985Z,19.75
2022-08-18T23:07:39.573Z,19.67
2022-08-18T23:10:13.603Z,19.69
2022-08-18T23:12:42.574Z,19.56
2022-08-18T23:15:12.066Z,19.68
2022-08-18T23:17:40.551Z,19.66
2022-08-18T23:20:09.853Z,19.64
2022-08-18T23:22:39.205Z,19.58
2022-08-18T23:25:09.480Z,19.58
2022-08-18T23:27:37.179Z,19.52
2022-08-18T23:30:05.578Z,19.47
2022-08-18T23:32:34.473Z,19.44
2022-08-18T23:35:02.334Z,19.39
2022-08-18T23:37:31.510Z,19.29
2022-08-18T23:39:59.126Z,19.25
2022-08-18T23:42:27.373Z,19.22
2022-08-18T23:45:03.746Z,19.18
2022-08-18T23:47:31.297Z,19.12
2022-08-18T23:50:00.169Z,19.02
2022-08-18T23:52:27.786Z,18.99
2022-08-18T23:54:56.462Z,18.98
2022-08-18T23:57:24.006Z,18.99
2022-08-18T23:59:51.522Z,18.99
